Time;durP1;ratioP1;P1;durP2;ratioP2;P2;SDS_P1;SDS_P2;PMS_P1;PMS_P2;Temp;Humidity;BMP_temperature;BMP_pressure;BME280_temperature;BME280_humidity;BME280_pressure;Samples;Min_cycle;Max_cycle;Signal;HPM_P1;HPM_P2
2023/01/16 00:01:05;;;;;;;6.47;5.43;;;25.90;62.50;;;;;;5060571;27;93909;-57
2023/01/16 00:03:33;;;;;;;6.70;5.33;;;25.80;62.80;;;;;;5060623;27;92126;-57
2023/01/16 00:06:01;;;;;;;6.97;5.70;;;25.70;59.70;;;;;;5060683;27;92125;-59
2023/01/16 00:08:29;;;;;;;8.10;5.50;;;25.70;63.10;;;;;;5060468;27;93309;-58
2023/01/16 00:10:57;;;;;;;6.93;5.57;;;25.60;64.70;;;;;;5060471;27;93870;-58
2023/01/16 00:13:27;;;;;;;8.60;5.40;;;25.50;59.80;;;;;;5060387;27;92193;-58
2023/01/16 00:15:55;;;;;;;7.03;5.10;;;25.40;64.60;;;;;;5059862;27;92018;-58
2023/01/16 00:18:23;;;;;;;8.23;5.90;;;25.40;58.90;;;;;;5055152;27;93996;-58
2023/01/16 00:20:51;;;;;;;10.10;6.13;;;25.40;59.90;;;;;;5060115;27;94513;-58
2023/01/16 00:23:19;;;;;;;9.97;6.93;;;25.40;64.60;;;;;;5081043;27;91943;-58
2023/01/16 00:25:47;;;;;;;10.87;6.60;;;25.40;63.80;;;;;;5059312;27;92692;-58
2023/01/16 00:28:15;;;;;;;10.67;7.47;;;25.50;62.60;;;;;;5055849;27;92868;-57
2023/01/16 00:30:45;;;;;;;9.50;6.67;;;25.50;62.60;;;;;;5067079;27;92817;-57
2023/01/16 00:33:13;;;;;;;11.73;6.33;;;25.70;62.80;;;;;;5071200;27;92058;-58
2023/01/16 00:35:41;;;;;;;7.13;5.90;;;25.70;63.10;;;;;;5080357;27;91245;-57
2023/01/16 00:38:09;;;;;;;8.77;5.93;;;25.80;63.10;;;;;;5061841;27;93635;-57
2023/01/16 00:40:37;;;;;;;8.70;5.97;;;25.90;63.40;;;;;;5059219;27;93891;-58
2023/01/16 00:43:05;;;;;;;7.63;5.43;;;26.00;62.70;;;;;;5059548;27;93036;-58
2023/01/16 00:45:33;;;;;;;8.67;5.17;;;26.00;64.00;;;;;;5060227;27;92474;-57
2023/01/16 00:48:03;;;;;;;7.70;4.90;;;26.10;62.90;;;;;;5059884;27;93821;-58
2023/01/16 00:50:31;;;;;;;5.20;4.40;;;26.10;62.80;;;;;;5078957;27;91961;-58
2023/01/16 00:52:59;;;;;;;5.97;4.30;;;26.10;59.30;;;;;;5080511;27;92136;-58
2023/01/16 00:55:27;;;;;;;5.47;4.63;;;26.10;62.10;;;;;;5063474;27;92893;-58
2023/01/16 00:57:55;;;;;;;6.13;4.07;;;26.00;61.70;;;;;;5059385;27;93412;-59
2023/01/16 01:00:23;;;;;;;6.07;4.47;;;26.00;61.30;;;;;;5059236;27;93967;-57
2023/01/16 01:02:51;;;;;;;5.43;3.90;;;25.90;61.60;;;;;;5058664;27;92123;-57
2023/01/16 01:05:21;;;;;;;4.47;3.03;;;25.90;62.50;;;;;;5038596;27;92211;-57
2023/01/16 01:07:49;;;;;;;2.87;2.67;;;25.80;62.20;;;;;;5031740;28;95074;-57
2023/01/16 01:10:17;;;;;;;4.50;3.10;;;25.80;62.60;;;;;;5045787;27;95317;-58
2023/01/16 01:12:45;;;;;;;4.53;3.10;;;25.70;62.20;;;;;;5039522;27;93393;-58
2023/01/16 01:15:13;;;;;;;4.37;3.40;;;25.60;60.60;;;;;;5040021;27;93445;-58
2023/01/16 01:17:41;;;;;;;4.20;3.20;;;25.60;60.40;;;;;;5069309;27;94160;-57
2023/01/16 01:20:10;;;;;;;3.23;2.60;;;25.50;60.80;;;;;;5056707;27;93952;-58
2023/01/16 01:22:39;;;;;;;4.23;3.20;;;25.40;60.30;;;;;;5069695;27;92109;-58
2023/01/16 01:25:08;;;;;;;4.40;3.20;;;25.30;61.60;;;;;;5067718;27;91394;-57
2023/01/16 01:27:36;;;;;;;3.87;2.57;;;25.30;61.40;;;;;;5079658;27;94121;-58
2023/01/16 01:30:05;;;;;;;5.30;2.83;;;25.20;61.60;;;;;;5078847;27;93940;-58
2023/01/16 01:32:33;;;;;;;4.07;2.77;;;25.10;62.50;;;;;;5060315;27;93032;-58
2023/01/16 01:35:01;;;;;;;3.83;2.50;;;25.00;63.20;;;;;;5059088;27;92082;-58
2023/01/16 01:37:29;;;;;;;3.10;2.33;;;24.90;62.60;;;;;;5053756;27;93303;-57
2023/01/16 01:39:58;;;;;;;2.60;2.27;;;24.90;63.60;;;;;;5044821;27;92854;-58
2023/01/16 01:42:47;;;;;;;2.30;2.10;;;24.90;63.70;;;;;;5044441;27;92908;-58
2023/01/16 01:45:17;;;;;;;2.60;2.27;;;24.80;63.30;;;;;;5048335;27;92172;-58
2023/01/16 01:47:49;;;;;;;2.60;2.33;;;24.70;63.50;;;;;;5031583;28;94303;-57
2023/01/16 01:50:21;;;;;;;2.43;2.03;;;24.80;63.60;;;;;;5054484;27;93883;-57
2023/01/16 01:52:50;;;;;;;2.33;1.90;;;24.60;63.40;;;;;;5049721;27;92190;-58
2023/01/16 01:55:19;;;;;;;2.43;1.93;;;24.50;63.40;;;;;;5044425;27;92180;-58
2023/01/16 01:57:48;;;;;;;2.13;1.83;;;24.50;63.40;;;;;;5037084;27;94218;-57
2023/01/16 02:00:17;;;;;;;2.27;1.70;;;24.40;63.40;;;;;;5050784;27;94980;-58
2023/01/16 02:02:48;;;;;;;2.17;1.77;;;24.40;63.60;;;;;;5059084;27;92141;-58
2023/01/16 02:05:19;;;;;;;2.43;1.80;;;24.30;63.70;;;;;;5042455;27;92072;-57
2023/01/16 02:07:47;;;;;;;1.73;1.60;;;24.30;63.20;;;;;;5052225;27;94125;-57
2023/01/16 02:10:19;;;;;;;1.80;1.70;;;24.20;63.80;;;;;;5058282;27;93869;-58
2023/01/16 02:12:47;;;;;;;2.03;1.63;;;24.20;63.90;;;;;;5056711;27;92267;-58
2023/01/16 02:15:15;;;;;;;2.23;1.77;;;24.20;62.50;;;;;;5042136;27;91282;-58
2023/01/16 02:20:32;;;;;;;1.63;1.50;;;24.10;61.30;;;;;;5037743;27;93779;-58
2023/01/16 02:23:14;;;;;;;2.60;1.47;;;24.00;61.50;;;;;;5037216;28;93053;-58
2023/01/16 02:26:25;;;;;;;1.93;1.40;;;24.00;62.30;;;;;;5051190;27;92455;-58
2023/01/16 02:29:27;;;;;;;1.53;1.20;;;23.90;61.90;;;;;;5037738;28;94202;-58
2023/01/16 02:32:00;;;;;;;1.60;1.40;;;23.90;61.80;;;;;;5037393;27;92828;-58
2023/01/16 02:34:46;;;;;;;1.93;1.63;;;23.90;62.20;;;;;;5038132;27;91995;-58
2023/01/16 02:37:18;;;;;;;2.30;1.80;;;23.90;63.00;;;;;;5038099;27;92073;-58
2023/01/16 02:39:49;;;;;;;1.93;1.10;;;23.80;62.20;;;;;;5043226;27;93129;-58
2023/01/16 02:42:21;;;;;;;1.40;1.17;;;23.80;62.20;;;;;;5058473;27;92919;-58
2023/01/16 02:44:52;;;;;;;1.20;1.10;;;23.80;62.10;;;;;;5061395;27;92095;-59
2023/01/16 02:47:24;;;;;;;1.80;1.23;;;23.70;62.60;;;;;;5061688;27;93330;-58
2023/01/16 02:49:57;;;;;;;1.97;1.33;;;23.70;60.90;;;;;;5061272;27;95043;-58
2023/01/16 02:52:29;;;;;;;1.57;1.27;;;23.70;61.80;;;;;;5061225;27;94790;-58
2023/01/16 02:54:58;;;;;;;0.90;0.90;;;23.60;61.60;;;;;;5061299;27;92085;-58
2023/01/16 02:57:30;;;;;;;1.20;1.10;;;23.60;62.10;;;;;;5061521;27;92132;-58
2023/01/16 02:59:58;;;;;;;1.77;1.10;;;23.70;63.10;;;;;;5060859;27;93166;-58
2023/01/16 03:02:27;;;;;;;1.23;1.13;;;23.50;62.30;;;;;;5061112;27;92782;-58
2023/01/16 03:04:55;;;;;;;2.20;1.30;;;23.50;61.50;;;;;;5061700;27;92010;-58
2023/01/16 03:07:45;;;;;;;2.73;1.00;;;23.50;62.00;;;;;;5061909;27;91335;-58
2023/01/16 03:10:24;;;;;;;1.43;0.90;;;23.40;61.50;;;;;;5061632;27;94069;-58
2023/01/16 03:12:56;;;;;;;1.10;1.00;;;23.40;61.70;;;;;;5060365;27;92128;-58
2023/01/16 03:15:27;;;;;;;1.30;1.10;;;23.40;61.40;;;;;;5061619;27;94061;-58
2023/01/16 03:18:02;;;;;;;1.00;0.90;;;23.40;63.10;;;;;;5061028;27;92112;-58
2023/01/16 03:20:34;;;;;;;1.20;0.90;;;23.30;61.30;;;;;;5060164;27;94243;-58
2023/01/16 03:23:07;;;;;;;1.13;1.00;;;23.30;62.30;;;;;;5060545;27;92954;-58
2023/01/16 03:25:36;;;;;;;1.07;0.80;;;23.30;62.00;;;;;;5060512;27;93290;-59
2023/01/16 03:28:08;;;;;;;0.97;0.90;;;23.20;61.80;;;;;;5061381;27;92088;-60
2023/01/16 03:30:39;;;;;;;1.00;0.83;;;23.20;63.60;;;;;;5060875;27;93258;-59
2023/01/16 03:33:11;;;;;;;2.73;0.90;;;23.20;63.90;;;;;;5060814;27;92921;-59
2023/01/16 03:35:42;;;;;;;1.53;0.90;;;23.10;62.70;;;;;;5061020;27;92059;-59
2023/01/16 03:38:11;;;;;;;1.00;0.80;;;23.10;63.00;;;;;;5061224;27;92106;-59
2023/01/16 03:40:41;;;;;;;2.23;1.10;;;23.10;62.90;;;;;;5059888;27;92884;-59
2023/01/16 03:43:11;;;;;;;1.53;0.90;;;23.10;63.80;;;;;;5060527;27;94779;-59
2023/01/16 03:45:41;;;;;;;1.30;0.80;;;23.10;63.10;;;;;;5060981;27;92130;-59
2023/01/16 03:48:12;;;;;;;1.17;0.70;;;23.00;63.70;;;;;;5060837;27;92116;-59
2023/01/16 03:50:40;;;;;;;0.60;0.60;;;23.00;63.90;;;;;;5060316;27;93109;-59
2023/01/16 03:53:10;;;;;;;1.00;0.90;;;23.00;64.70;;;;;;5060105;27;94205;-58
2023/01/16 03:55:43;;;;;;;0.83;0.67;;;23.00;64.70;;;;;;5060806;27;92058;-58
2023/01/16 03:58:14;;;;;;;1.00;1.00;;;23.00;64.60;;;;;;5060921;27;91391;-58
2023/01/16 04:00:47;;;;;;;0.97;0.70;;;22.90;65.10;;;;;;5060142;27;93208;-58
2023/01/16 04:03:20;;;;;;;0.53;0.53;;;23.00;64.90;;;;;;5060257;27;92594;-59
2023/01/16 04:05:50;;;;;;;0.60;0.60;;;22.90;65.00;;;;;;5059521;27;93701;-59
2023/01/16 04:08:19;;;;;;;0.93;0.70;;;22.90;58.90;;;;;;5060411;27;92070;-58
2023/01/16 04:10:47;;;;;;;1.07;0.57;;;22.80;63.20;;;;;;5059929;27;93310;-59
2023/01/16 04:13:16;;;;;;;0.67;0.67;;;22.80;63.10;;;;;;5060236;27;93099;-58
2023/01/16 04:15:46;;;;;;;0.50;0.50;;;22.80;62.70;;;;;;5060587;27;92067;-59
2023/01/16 04:18:15;;;;;;;0.93;0.70;;;22.80;63.80;;;;;;5059904;27;92107;-58
2023/01/16 04:20:46;;;;;;;0.77;0.50;;;22.80;64.70;;;;;;5059592;27;92967;-58
2023/01/16 04:23:16;;;;;;;0.87;0.60;;;22.70;64.80;;;;;;5060397;27;94101;-59
2023/01/16 04:25:44;;;;;;;0.53;0.50;;;22.70;62.80;;;;;;5059597;27;92109;-58
2023/01/16 04:28:12;;;;;;;0.80;0.50;;;22.70;64.20;;;;;;5059880;27;92097;-58
2023/01/16 04:30:40;;;;;;;0.40;0.40;;;22.70;59.80;;;;;;5058871;27;94977;-59
2023/01/16 04:33:08;;;;;;;0.53;0.40;;;22.70;66.60;;;;;;5060081;27;93732;-58
2023/01/16 04:35:36;;;;;;;0.60;0.57;;;22.60;60.70;;;;;;5059981;27;92139;-58
2023/01/16 04:38:05;;;;;;;0.87;0.67;;;22.60;67.30;;;;;;5059943;27;92104;-59
2023/01/16 04:40:33;;;;;;;0.50;0.50;;;22.60;59.40;;;;;;5059382;27;93254;-58
2023/01/16 04:43:01;;;;;;;2.00;0.50;;;22.50;65.30;;;;;;5059602;27;92866;-58
2023/01/16 04:45:29;;;;;;;0.67;0.67;;;22.50;58.70;;;;;;5059854;27;91937;-59
2023/01/16 04:47:57;;;;;;;0.63;0.50;;;22.50;59.00;;;;;;5060412;27;91309;-58
2023/01/16 04:50:25;;;;;;;0.30;0.30;;;22.50;67.10;;;;;;5059818;27;92211;-58
2023/01/16 04:52:53;;;;;;;0.40;0.40;;;22.50;65.80;;;;;;5059524;27;93851;-59
2023/01/16 04:55:22;;;;;;;0.60;0.60;;;22.40;65.30;;;;;;5058811;27;93184;-58
2023/01/16 04:57:50;;;;;;;0.70;0.60;;;22.40;66.30;;;;;;5059905;27;92058;-58
2023/01/16 05:00:19;;;;;;;0.50;0.50;;;22.40;63.60;;;;;;5059416;27;94102;-58
2023/01/16 05:02:47;;;;;;;0.43;0.43;;;22.40;63.30;;;;;;5059526;27;93124;-58
2023/01/16 05:05:15;;;;;;;0.50;0.50;;;22.30;63.70;;;;;;5059028;27;92248;-58
2023/01/16 05:07:43;;;;;;;0.37;0.37;;;22.30;58.10;;;;;;5059345;27;92193;-58
2023/01/16 05:10:11;;;;;;;0.40;0.40;;;22.30;58.30;;;;;;5059327;27;93963;-58
2023/01/16 05:12:41;;;;;;;0.30;0.30;;;22.30;58.90;;;;;;5059350;27;92820;-59
2023/01/16 05:15:10;;;;;;;0.77;0.70;;;22.20;59.20;;;;;;5059305;27;92103;-59
2023/01/16 05:17:38;;;;;;;4.30;0.40;;;22.20;58.60;;;;;;5057890;27;92133;-58
2023/01/16 05:20:07;;;;;;;0.40;0.30;;;22.20;57.70;;;;;;5058299;27;95122;-59
2023/01/16 05:22:35;;;;;;;0.57;0.57;;;22.10;57.80;;;;;;5059175;27;93753;-58
2023/01/16 05:25:03;;;;;;;0.40;0.40;;;22.20;58.30;;;;;;5059764;27;92590;-58
2023/01/16 05:27:31;;;;;;;0.53;0.53;;;22.20;59.10;;;;;;5059728;27;92125;-58
2023/01/16 05:30:01;;;;;;;1.00;0.50;;;22.20;60.60;;;;;;5059086;27;94209;-58
2023/01/16 05:32:29;;;;;;;0.20;0.20;;;22.10;63.60;;;;;;5059025;27;93870;-58
2023/01/16 05:35:00;;;;;;;0.47;0.30;;;;;;;;;;5059521;27;92081;-59
2023/01/16 05:37:28;;;;;;;0.80;0.77;;;22.10;59.20;;;;;;5059260;27;91999;-58
2023/01/16 05:39:56;;;;;;;0.70;0.50;;;22.10;59.40;;;;;;5058564;27;94862;-59
2023/01/16 05:42:24;;;;;;;0.30;0.30;;;22.10;59.10;;;;;;5058525;27;93904;-58
2023/01/16 05:44:53;;;;;;;0.60;0.60;;;22.00;58.80;;;;;;5059015;27;92917;-58
2023/01/16 05:47:22;;;;;;;0.40;0.40;;;;;;;;;;5058859;27;92187;-58
2023/01/16 05:49:50;;;;;;;0.67;0.67;;;22.00;65.20;;;;;;5059086;27;94126;-58
2023/01/16 05:52:18;;;;;;;0.33;0.33;;;22.00;62.70;;;;;;5058423;27;92854;-60
2023/01/16 05:54:46;;;;;;;0.87;0.47;;;21.90;62.70;;;;;;5058552;27;92001;-60
2023/01/16 05:57:14;;;;;;;0.70;0.40;;;21.90;69.10;;;;;;5058777;27;92207;-60
2023/01/16 05:59:45;;;;;;;0.63;0.40;;;21.90;66.20;;;;;;5058705;27;94354;-60
2023/01/16 06:02:13;;;;;;;0.43;0.43;;;21.90;66.40;;;;;;5059051;27;92960;-60
2023/01/16 06:04:43;;;;;;;2.37;0.40;;;;;;;;;;5058953;27;92183;-60
2023/01/16 06:07:11;;;;;;;0.63;0.47;;;21.90;65.50;;;;;;5058834;27;91994;-60
2023/01/16 06:09:39;;;;;;;0.10;0.10;;;21.80;67.80;;;;;;5058153;27;95426;-60
2023/01/16 06:12:08;;;;;;;0.43;0.40;;;21.80;66.80;;;;;;5057642;27;94734;-58
2023/01/16 06:14:36;;;;;;;0.43;0.43;;;21.80;65.30;;;;;;5058655;27;92112;-60
2023/01/16 06:17:04;;;;;;;0.30;0.30;;;21.80;64.30;;;;;;5058049;27;92120;-58
2023/01/16 06:19:32;;;;;;;0.40;0.40;;;21.70;64.10;;;;;;5057768;27;92076;-60
2023/01/16 06:22:01;;;;;;;0.63;0.37;;;21.70;64.60;;;;;;5057778;27;93852;-59
2023/01/16 06:24:29;;;;;;;0.73;0.30;;;21.70;64.40;;;;;;5058555;27;92156;-59
2023/01/16 06:26:57;;;;;;;0.30;0.30;;;21.70;64.30;;;;;;5058594;27;91472;-59
2023/01/16 06:29:25;;;;;;;0.73;0.63;;;21.70;64.40;;;;;;5057574;27;93284;-59
2023/01/16 06:31:53;;;;;;;0.20;0.20;;;21.70;64.40;;;;;;5058344;27;93147;-59
2023/01/16 06:34:21;;;;;;;0.50;0.50;;;21.60;64.60;;;;;;5057886;27;93696;-59
2023/01/16 06:36:49;;;;;;;0.20;0.20;;;21.60;65.00;;;;;;5058689;27;92182;-59
2023/01/16 06:39:19;;;;;;;0.50;0.50;;;21.60;65.00;;;;;;5076772;27;92976;-59
2023/01/16 06:41:47;;;;;;;0.40;0.40;;;21.60;65.30;;;;;;5078324;27;93898;-59
2023/01/16 06:44:15;;;;;;;1.23;0.67;;;21.60;65.00;;;;;;5078790;27;92095;-59
2023/01/16 06:46:43;;;;;;;1.20;0.20;;;21.60;65.50;;;;;;5078714;27;92400;-59
2023/01/16 06:49:11;;;;;;;0.40;0.37;;;21.50;65.80;;;;;;5078350;27;93465;-60
2023/01/16 06:51:39;;;;;;;5.10;0.67;;;21.50;65.80;;;;;;5078551;27;92810;-59
2023/01/16 06:54:07;;;;;;;2.67;0.57;;;21.50;66.20;;;;;;5078225;27;92551;-59
2023/01/16 06:56:37;;;;;;;0.47;0.47;;;21.50;66.40;;;;;;5078919;27;92061;-60
2023/01/16 06:59:05;;;;;;;0.40;0.40;;;21.50;66.40;;;;;;5077800;27;95101;-59
2023/01/16 07:01:33;;;;;;;0.30;0.30;;;21.50;67.40;;;;;;5078454;27;93687;-60
2023/01/16 07:04:01;;;;;;;1.83;0.70;;;21.40;67.30;;;;;;5069887;27;92080;-60
2023/01/16 07:06:29;;;;;;;0.50;0.50;;;21.40;67.20;;;;;;5057711;27;91980;-59
2023/01/16 07:08:57;;;;;;;0.40;0.40;;;21.40;66.30;;;;;;5057456;27;94225;-59
2023/01/16 07:11:26;;;;;;;0.40;0.40;;;;;;;;;;5056974;27;93951;-59
2023/01/16 07:22:34;;;;;;;0.30;0.30;;;21.40;75.00;;;;;;5058311;27;91943;-60
2023/01/16 07:25:00;;;;;;;0.30;0.30;;;21.30;50.00;;;;;;5057043;27;93027;-59
2023/01/16 07:27:28;;;;;;;0.30;0.30;;;21.30;44.60;;;;;;5058029;27;92187;-59
2023/01/16 07:29:58;;;;;;;0.20;0.20;;;21.20;44.00;;;;;;5061156;27;93325;-60
2023/01/16 07:32:26;;;;;;;0.83;0.53;;;21.30;50.20;;;;;;5061026;27;93004;-59
2023/01/16 07:34:54;;;;;;;0.30;0.30;;;21.20;44.40;;;;;;5061577;27;92178;-59
2023/01/16 07:37:22;;;;;;;0.30;0.30;;;21.20;49.00;;;;;;5060772;27;93404;-59
2023/01/16 07:39:50;;;;;;;0.30;0.30;;;21.20;53.80;;;;;;5060826;27;93382;-59
2023/01/16 07:42:18;;;;;;;0.63;0.40;;;21.10;45.70;;;;;;5061291;27;92910;-60
2023/01/16 07:44:46;;;;;;;0.20;0.20;;;21.10;55.80;;;;;;5061491;27;92227;-60
2023/01/16 07:47:15;;;;;;;0.47;0.43;;;21.20;63.30;;;;;;5060666;27;92152;-59
2023/01/16 07:49:44;;;;;;;0.20;0.20;;;21.10;62.50;;;;;;5059799;27;94096;-60
2023/01/16 07:52:12;;;;;;;0.30;0.30;;;21.10;62.50;;;;;;5060549;27;94860;-59
2023/01/16 07:54:41;;;;;;;1.37;0.70;;;21.10;63.40;;;;;;5060782;27;92131;-60
2023/01/16 07:57:09;;;;;;;0.50;0.40;;;21.10;62.90;;;;;;5060721;27;92124;-59
2023/01/16 07:59:37;;;;;;;0.33;0.27;;;21.10;63.00;;;;;;5060385;27;93160;-60
2023/01/16 08:02:05;;;;;;;0.73;0.37;;;21.10;63.10;;;;;;5060389;27;93030;-59
2023/01/16 08:04:34;;;;;;;0.30;0.30;;;21.10;63.40;;;;;;5060398;27;92156;-59
2023/01/16 08:07:02;;;;;;;0.40;0.30;;;21.10;63.30;;;;;;5060994;27;91406;-59
2023/01/16 08:09:31;;;;;;;0.83;0.23;;;21.10;63.30;;;;;;5059982;27;94183;-59
2023/01/16 08:11:59;;;;;;;0.40;0.40;;;21.00;63.10;;;;;;5060104;27;94271;-59
2023/01/16 08:14:27;;;;;;;0.60;0.30;;;21.00;63.40;;;;;;5060065;27;93052;-59
2023/01/16 08:16:55;;;;;;;0.63;0.40;;;21.00;63.60;;;;;;5060590;27;92079;-59
2023/01/16 08:19:23;;;;;;;0.30;0.30;;;21.00;63.90;;;;;;5059976;27;94451;-59
2023/01/16 08:21:52;;;;;;;0.40;0.40;;;21.00;63.70;;;;;;5059908;27;94034;-59
2023/01/16 08:24:21;;;;;;;0.40;0.40;;;20.90;51.40;;;;;;5060040;27;92098;-59
2023/01/16 08:26:48;;;;;;;0.47;0.40;;;20.90;58.30;;;;;;5060318;27;92093;-60
2023/01/16 08:29:16;;;;;;;0.57;0.50;;;20.90;57.80;;;;;;5060373;27;93138;-59
2023/01/16 08:31:44;;;;;;;0.27;0.27;;;20.90;55.10;;;;;;5060500;27;94000;-59
2023/01/16 08:34:13;;;;;;;0.20;0.20;;;20.90;56.20;;;;;;5060082;27;92118;-60
2023/01/16 08:36:41;;;;;;;0.20;0.20;;;20.80;62.60;;;;;;5060464;27;92045;-59
2023/01/16 08:39:11;;;;;;;0.20;0.20;;;20.80;56.90;;;;;;5058618;27;95031;-59
2023/01/16 08:52:43;;;;;;;1.40;0.50;;;20.70;57.30;;;;;;5059719;27;93885;-59
2023/01/16 08:55:13;;;;;;;1.43;0.70;;;20.60;57.70;;;;;;5059525;27;92165;-59
2023/01/16 08:57:41;;;;;;;0.37;0.20;;;20.60;60.50;;;;;;5060189;27;91365;-59
2023/01/16 09:00:10;;;;;;;0.40;0.40;;;20.70;59.00;;;;;;5059792;27;94315;-59
2023/01/16 09:02:38;;;;;;;0.60;0.60;;;20.60;60.10;;;;;;5058979;27;94021;-59
2023/01/16 09:05:07;;;;;;;0.87;0.73;;;20.60;60.10;;;;;;5058908;27;93074;-59
2023/01/16 09:07:35;;;;;;;0.30;0.30;;;20.80;59.00;;;;;;5059216;27;92125;-59
2023/01/16 09:10:04;;;;;;;0.30;0.30;;;20.50;59.30;;;;;;5059409;27;94219;-60
2023/01/16 09:15:19;;;;;;;0.70;0.70;;;20.60;60.10;;;;;;5060026;27;92091;-59
2023/01/16 09:17:47;;;;;;;0.20;0.20;;;20.50;60.10;;;;;;5059283;27;92070;-60
2023/01/16 09:20:15;;;;;;;0.43;0.30;;;20.60;60.20;;;;;;5058804;27;93308;-59
2023/01/16 09:22:43;;;;;;;0.43;0.43;;;20.60;62.30;;;;;;5059548;27;92789;-62
2023/01/16 09:25:11;;;;;;;0.30;0.20;;;20.60;64.00;;;;;;5058350;27;92717;-59
2023/01/16 09:27:40;;;;;;;0.63;0.23;;;20.60;63.90;;;;;;5059434;27;92026;-59
2023/01/16 09:30:10;;;;;;;0.83;0.60;;;20.50;63.20;;;;;;5058381;27;95180;-60
2023/01/16 09:32:38;;;;;;;1.13;0.63;;;20.50;63.00;;;;;;5059169;27;94996;-59
2023/01/16 09:35:07;;;;;;;0.40;0.40;;;20.50;63.80;;;;;;5059505;27;92213;-59
2023/01/16 09:37:35;;;;;;;0.63;0.47;;;20.50;62.90;;;;;;5059082;27;92126;-59
2023/01/16 09:40:03;;;;;;;0.37;0.33;;;20.50;62.20;;;;;;5038302;28;94183;-59
2023/01/16 09:45:26;;;;;;;0.33;0.33;;;20.50;61.80;;;;;;5059203;27;92014;-59
2023/01/16 09:47:56;;;;;;;0.37;0.37;;;20.50;62.70;;;;;;5059592;27;91406;-59
2023/01/16 09:50:30;;;;;;;0.20;0.10;;;20.50;61.40;;;;;;5057657;27;94368;-59
2023/01/16 09:58:37;;;;;;;0.40;0.40;;;20.50;61.70;;;;;;5058823;27;92072;-59
2023/01/16 10:01:07;;;;;;;0.40;0.40;;;20.60;61.50;;;;;;5057846;27;94422;-59
2023/01/16 10:03:41;;;;;;;0.40;0.33;;;20.60;61.80;;;;;;5057254;27;92852;-59
2023/01/16 10:06:22;;;;;;;0.47;0.40;;;20.70;61.70;;;;;;5056355;27;93656;-60
2023/01/16 10:08:59;;;;;;;0.20;0.20;;;20.90;61.60;;;;;;5059360;27;92112;-59
2023/01/16 10:11:30;;;;;;;0.30;0.30;;;21.00;61.30;;;;;;5057826;27;94222;-59
2023/01/16 10:14:14;;;;;;;0.83;0.50;;;21.30;62.50;;;;;;5058124;27;92037;-59
2023/01/16 10:16:54;;;;;;;0.40;0.40;;;21.40;61.30;;;;;;5058930;27;92072;-59
2023/01/16 10:19:30;;;;;;;0.40;0.40;;;21.70;61.00;;;;;;5058270;27;92032;-59
2023/01/16 10:22:05;;;;;;;0.33;0.33;;;21.80;61.00;;;;;;5057747;27;94017;-58
2023/01/16 10:24:39;;;;;;;0.27;0.27;;;22.00;61.00;;;;;;5057783;27;94284;-60
2023/01/16 10:27:13;;;;;;;0.10;0.10;;;22.20;60.20;;;;;;5058196;27;92390;-59
2023/01/16 10:29:43;;;;;;;0.30;0.30;;;22.40;60.20;;;;;;5058311;27;92202;-57
2023/01/16 10:32:14;;;;;;;0.43;0.40;;;22.50;60.10;;;;;;5058298;27;93458;-61
2023/01/16 10:34:45;;;;;;;0.40;0.40;;;22.70;60.30;;;;;;5058169;27;94015;-60
2023/01/16 10:37:14;;;;;;;0.30;0.30;;;22.80;60.20;;;;;;5057821;27;92560;-58
2023/01/16 10:39:42;;;;;;;3.43;0.20;;;23.00;60.40;;;;;;5058247;27;91453;-58
2023/01/16 10:50:32;;;;;;;0.20;0.20;;;23.50;61.70;;;;;;5058097;27;92050;-58
2023/01/16 10:53:04;;;;;;;0.30;0.30;;;23.60;62.80;;;;;;5057246;27;94233;-58
2023/01/16 10:55:34;;;;;;;0.73;0.40;;;23.60;58.90;;;;;;5056999;27;94114;-58
2023/01/16 10:58:03;;;;;;;1.10;0.20;;;23.80;58.70;;;;;;5058385;27;92091;-58
2023/01/16 11:00:33;;;;;;;0.10;0.10;;;23.80;58.50;;;;;;5057517;27;92129;-58
2023/01/16 11:03:05;;;;;;;0.30;0.30;;;24.00;58.40;;;;;;5058414;27;93112;-58
2023/01/16 11:05:34;;;;;;;0.30;0.30;;;24.10;58.40;;;;;;5061002;27;93955;-58
2023/01/16 11:08:07;;;;;;;0.30;0.30;;;24.30;58.70;;;;;;5061026;27;92132;-57
2023/01/16 11:10:35;;;;;;;0.10;0.10;;;24.30;58.20;;;;;;5061751;27;92096;-57
2023/01/16 11:18:50;;;;;;;0.20;0.20;;;24.60;58.30;;;;;;5026346;27;92263;-58
2023/01/16 11:21:26;;;;;;;0.40;0.23;;;24.70;58.10;;;;;;5061635;27;92144;-57
2023/01/16 11:23:58;;;;;;;0.23;0.10;;;24.70;58.00;;;;;;5060246;27;94413;-57
2023/01/16 11:26:26;;;;;;;0.20;0.20;;;24.80;58.20;;;;;;5060644;27;93850;-57
2023/01/16 11:28:54;;;;;;;0.33;0.30;;;24.90;58.20;;;;;;5060891;27;92123;-57
2023/01/16 11:31:24;;;;;;;0.20;0.20;;;24.90;58.30;;;;;;5061110;27;91399;-57
2023/01/16 11:33:59;;;;;;;0.20;0.20;;;25.00;58.30;;;;;;5060704;27;93165;-57
2023/01/16 11:36:27;;;;;;;0.20;0.20;;;25.10;58.40;;;;;;5060604;27;92957;-57
2023/01/16 11:38:55;;;;;;;0.20;0.20;;;25.10;58.30;;;;;;5060833;27;93092;-58
2023/01/16 11:41:27;;;;;;;0.33;0.20;;;25.20;58.20;;;;;;5060776;27;92177;-58
2023/01/16 11:47:01;;;;;;;0.30;0.30;;;25.10;58.00;;;;;;5060662;27;92817;-57
2023/01/16 11:49:35;;;;;;;0.10;0.10;;;25.10;57.90;;;;;;5061053;27;92072;-59
2023/01/16 11:52:03;;;;;;;0.10;0.10;;;25.00;57.90;;;;;;5061130;27;92117;-57
2023/01/16 11:54:33;;;;;;;0.20;0.20;;;25.00;57.80;;;;;;5060315;27;93160;-59
2023/01/16 11:57:11;;;;;;;0.30;0.30;;;25.10;57.80;;;;;;5060986;27;92777;-57
2023/01/16 11:59:46;;;;;;;0.20;0.20;;;25.10;58.10;;;;;;5060528;27;91988;-59
2023/01/16 12:02:28;;;;;;;0.20;0.20;;;25.20;58.20;;;;;;5060815;27;92040;-57
2023/01/16 12:07:55;;;;;;;0.20;0.20;;;25.30;57.50;;;;;;5059770;27;94790;-57
2023/01/16 12:10:27;;;;;;;0.50;0.30;;;25.40;57.60;;;;;;5059712;27;92086;-58
2023/01/16 12:15:51;;;;;;;0.40;0.40;;;25.50;58.00;;;;;;5059545;27;93188;-57
2023/01/16 12:18:21;;;;;;;0.17;0.17;;;25.40;57.50;;;;;;5058664;27;93784;-58
2023/01/16 12:20:53;;;;;;;0.30;0.30;;;25.40;57.40;;;;;;5060711;27;92009;-58
2023/01/16 12:23:37;;;;;;;0.30;0.30;;;25.30;57.40;;;;;;5060894;27;91961;-58
2023/01/16 12:26:20;;;;;;;0.33;0.30;;;25.30;57.30;;;;;;5060096;27;94222;-58
2023/01/16 12:29:04;;;;;;;0.20;0.20;;;25.20;57.60;;;;;;5060403;27;93183;-58
2023/01/16 12:31:44;;;;;;;0.30;0.30;;;25.20;57.70;;;;;;5059962;27;93037;-57
2023/01/16 12:34:19;;;;;;;0.30;0.30;;;25.00;57.70;;;;;;5060144;27;92105;-57
2023/01/16 12:36:58;;;;;;;2.53;0.57;;;24.90;57.80;;;;;;5059686;27;94295;-57
2023/01/16 12:39:29;;;;;;;0.30;0.30;;;24.90;58.10;;;;;;5060107;27;92967;-58
2023/01/16 12:44:51;;;;;;;0.10;0.10;;;24.80;57.90;;;;;;5060039;27;92027;-58
2023/01/16 12:47:45;;;;;;;0.20;0.20;;;24.70;58.20;;;;;;5060138;27;94231;-58
2023/01/16 12:50:20;;;;;;;0.20;0.20;;;24.60;58.50;;;;;;5059884;27;94058;-58
2023/01/16 12:53:08;;;;;;;0.30;0.30;;;24.50;58.50;;;;;;5060088;27;92111;-57
2023/01/16 12:55:41;;;;;;;0.20;0.20;;;24.50;58.70;;;;;;5060041;27;92077;-57
2023/01/16 12:58:16;;;;;;;0.23;0.20;;;24.40;58.80;;;;;;5059222;27;94245;-57
2023/01/16 13:00:45;;;;;;;0.30;0.30;;;24.40;58.80;;;;;;5059424;27;94214;-58
2023/01/16 13:03:18;;;;;;;0.20;0.20;;;24.30;58.70;;;;;;5059910;27;92109;-59
2023/01/16 13:05:46;;;;;;;0.20;0.20;;;24.20;58.80;;;;;;5059816;27;92681;-57
2023/01/16 13:08:19;;;;;;;0.30;0.30;;;24.10;58.90;;;;;;5059622;27;94129;-58
2023/01/16 13:13:36;;;;;;;0.30;0.30;;;24.10;59.40;;;;;;5059465;27;92016;-58
2023/01/16 13:16:05;;;;;;;0.50;0.40;;;24.00;59.20;;;;;;5060297;27;91369;-58
2023/01/16 13:18:38;;;;;;;0.53;0.53;;;24.00;59.30;;;;;;5059228;27;93127;-58
2023/01/16 13:21:10;;;;;;;0.27;0.27;;;23.90;59.40;;;;;;5059580;27;92935;-58
2023/01/16 13:23:41;;;;;;;0.30;0.30;;;23.90;59.10;;;;;;5058510;27;93146;-58
2023/01/16 13:26:12;;;;;;;0.47;0.47;;;23.80;59.20;;;;;;5058654;27;92077;-58
2023/01/16 13:28:44;;;;;;;0.73;0.40;;;23.80;59.30;;;;;;5058904;27;93418;-58
2023/01/16 13:31:17;;;;;;;0.20;0.20;;;23.80;59.40;;;;;;5058880;27;93085;-57
2023/01/16 13:33:45;;;;;;;0.30;0.30;;;23.70;59.30;;;;;;5059383;27;92027;-58
2023/01/16 13:36:22;;;;;;;0.10;0.10;;;23.70;59.20;;;;;;5059015;27;92151;-57
2023/01/16 13:39:04;;;;;;;0.30;0.30;;;23.60;59.40;;;;;;5058565;27;93260;-60
2023/01/16 13:41:33;;;;;;;0.50;0.50;;;23.50;59.40;;;;;;5059259;27;94067;-57
2023/01/16 13:46:49;;;;;;;0.27;0.27;;;23.50;59.90;;;;;;5058834;27;92187;-58
2023/01/16 13:49:20;;;;;;;0.30;0.30;;;23.50;60.10;;;;;;5057836;27;94275;-58
2023/01/16 13:51:49;;;;;;;0.50;0.50;;;23.40;60.40;;;;;;5058511;27;94769;-58
2023/01/16 13:54:19;;;;;;;0.20;0.20;;;23.40;60.70;;;;;;5058938;27;92113;-60
2023/01/16 13:56:57;;;;;;;0.30;0.30;;;23.30;61.10;;;;;;5058715;27;92040;-58
2023/01/16 13:59:33;;;;;;;0.20;0.20;;;23.30;61.00;;;;;;5058794;27;94309;-58
2023/01/16 14:02:01;;;;;;;0.23;0.23;;;23.30;61.10;;;;;;5058404;27;92624;-58
2023/01/16 14:04:33;;;;;;;0.40;0.40;;;23.30;61.30;;;;;;5058901;27;92237;-58
2023/01/16 14:10:17;;;;;;;0.20;0.20;;;23.20;61.50;;;;;;5058002;27;93210;-58
2023/01/16 14:13:00;;;;;;;0.60;0.47;;;23.20;62.60;;;;;;5058355;27;92897;-58